Hlavní strana
METAR-TAF:

METAR-TAF

Letiště :

Bagdád, Irák

zeměpisná šířka: 33-15-45N, zeměpisná délka: 44-14-04E, výška: 35 m

Aktuální stav počasí

Zpráva byla vytvořena před 52 minutami, v 14:00 UTC
Západní vítr 8 kt, proměnlivý mezi západojihozápadním a severozápadním
Teplota 31°C
Vlhkost vzduchu 18%
Tlak 1006 hPa
Viditelnost 10 km a více
Žádná oblačnost pod 1500 m, nevyskytují se cumulonimby.

METAR: ORBI 141400Z 27008KT 240V310 CAVOK 31/04 Q1006

Čas: 17:52 (14:52 UTC)

Předpověď počasí

Zpráva byla vytvořena před 3 hodinami a 52 minutami, v 11:00 UTC
Předpověď platná od 14 v 12 UTC do 15 v 12 UTC
Severoseverozápadní vítr 12 kt
Viditelnost: 8000 m
Změna
od 14 v 17 UTC do 14 v 19 UTC
Polojasno ve výšce 3000 ft
Polojasno ve výšce 6000 ft
Dočasný
od 14 v 20 UTC do 15 v 05 UTC
Západoseverozápadní vítr 8 kt s nárazy do 18 kt
Viditelnost: 5000 m
Skoro jasno ve výšce 2500 ft, Cumulonimbus.

TAF: ORBI 141100Z 1412/1512 33012KT 8000 NSC BECMG 1417/1419 SCT030 SCT060 TEMPO 1420/1505 30008G18KT 5000 TSSHRA FEW025CB

Stav a předpovědi počasí z více než 4 000 letišť (zprávy METAR a TAF).

Červené a žluté tečky na mapě představují dostupné meteorologické stanice.

Když kurzor umístíte na tečku, zobrazí se název stanice.

Pak kliknutím zobrazíte stav a předpověď počasí.

Chcete-li změnit mapu, kliknutím na zelené tlačítko se znaménkem +mapu přiblížíte, kliknutím na zelené tlačítko se znaménkem – mapu oddálíte a kliknutím na zelené šipky přejdete na sousední mapy.


METAR-TAF: